createdAt,value
2022-08-17T00:03:13.644Z,3.13
2022-08-17T00:08:20.272Z,3.03
2022-08-17T00:13:34.816Z,3.28
2022-08-17T00:19:06.174Z,3.53
2022-08-17T00:23:58.109Z,3.50
2022-08-17T00:28:59.890Z,3.25
2022-08-17T00:34:02.131Z,3.95
2022-08-17T00:39:04.565Z,3.07
2022-08-17T00:44:08.530Z,3.60
2022-08-17T00:49:12.289Z,3.55
2022-08-17T00:54:22.278Z,2.97
2022-08-17T00:59:28.277Z,3.40
2022-08-17T01:04:30.925Z,3.42
2022-08-17T01:09:33.379Z,3.55
2022-08-17T01:14:34.783Z,3.10
2022-08-17T01:19:39.266Z,3.47
2022-08-17T01:24:48.329Z,3.45
2022-08-17T01:29:59.786Z,3.40
2022-08-17T01:35:02.191Z,3.17
2022-08-17T01:40:18.793Z,3.50
2022-08-17T01:45:26.738Z,3.25
2022-08-17T01:50:31.994Z,3.33
2022-08-17T01:55:43.421Z,3.15
2022-08-17T02:00:59.630Z,3.35
2022-08-17T02:06:05.200Z,3.13
2022-08-17T02:11:11.652Z,3.15
2022-08-17T02:16:14.087Z,3.50
2022-08-17T02:21:15.524Z,2.85
2022-08-17T02:26:24.091Z,2.90
2022-08-17T02:31:27.822Z,2.80
2022-08-17T02:36:29.293Z,2.78
2022-08-17T02:41:30.895Z,3.13
2022-08-17T02:46:32.595Z,3.33
2022-08-17T02:51:34.844Z,3.38
2022-08-17T02:56:36.178Z,3.30
2022-08-17T03:01:37.665Z,2.88
2022-08-17T03:06:39.068Z,2.83
2022-08-17T03:11:40.499Z,2.65
2022-08-17T03:16:41.851Z,2.78
2022-08-17T03:21:43.735Z,2.45
2022-08-17T03:26:45.091Z,2.90
2022-08-17T03:31:49.029Z,3.15
2022-08-17T03:36:50.411Z,2.55
2022-08-17T03:41:51.743Z,2.90
2022-08-17T03:47:11.613Z,3.03
2022-08-17T03:52:31.830Z,2.83
2022-08-17T03:57:33.346Z,4.10
2022-08-17T04:02:35.820Z,2.95
2022-08-17T04:07:37.128Z,2.90
2022-08-17T04:12:49.944Z,3.00
2022-08-17T04:17:52.221Z,2.90
2022-08-17T04:22:57.955Z,2.85
2022-08-17T04:28:00.388Z,2.90
2022-08-17T04:33:10.140Z,2.83
2022-08-17T04:38:14.724Z,3.47
2022-08-17T04:43:19.020Z,3.17
2022-08-17T04:48:20.761Z,3.78
2022-08-17T04:53:22.150Z,2.60
2022-08-17T04:58:23.473Z,3.13
2022-08-17T05:03:24.859Z,3.20
2022-08-17T05:08:26.407Z,3.17
2022-08-17T05:13:31.727Z,4.05
2022-08-17T05:18:33.258Z,3.60
2022-08-17T05:23:43.087Z,3.97
2022-08-17T05:28:45.119Z,3.58
2022-08-17T05:33:47.681Z,3.60
2022-08-17T05:38:49.055Z,3.25
2022-08-17T05:43:54.375Z,3.38
2022-08-17T05:49:03.934Z,3.05
2022-08-17T05:54:14.369Z,3.38
2022-08-17T05:59:45.614Z,3.13
2022-08-17T06:05:04.113Z,3.30
2022-08-17T06:10:18.367Z,3.10
2022-08-17T06:15:31.621Z,3.10
2022-08-17T06:20:44.703Z,2.85
2022-08-17T06:25:50.761Z,3.17
2022-08-17T06:31:01.363Z,3.45
2022-08-17T06:36:09.585Z,3.13
2022-08-17T06:41:27.666Z,3.33
2022-08-17T06:46:37.356Z,3.25
2022-08-17T06:51:48.631Z,3.22
2022-08-17T06:56:57.287Z,4.10
2022-08-17T07:02:05.522Z,3.75
2022-08-17T07:07:29.091Z,3.83
2022-08-17T07:12:39.122Z,3.67
2022-08-17T07:17:47.314Z,3.80
2022-08-17T07:23:08.914Z,4.35
2022-08-17T07:28:10.273Z,3.88
2022-08-17T07:33:17.760Z,3.80
2022-08-17T07:38:28.012Z,4.05
2022-08-17T07:43:29.638Z,3.90
2022-08-17T07:48:36.749Z,4.90
2022-08-17T07:53:38.089Z,4.53
2022-08-17T07:58:39.449Z,4.43
2022-08-17T08:03:46.099Z,5.00
2022-08-17T08:08:55.572Z,4.60
2022-08-17T08:14:20.393Z,4.30
2022-08-17T08:19:23.322Z,5.13
2022-08-17T08:24:53.012Z,5.10
2022-08-17T08:29:59.873Z,4.78
2022-08-17T08:35:10.174Z,4.75
2022-08-17T08:40:36.542Z,5.03
2022-08-17T08:45:50.438Z,5.10
2022-08-17T08:50:54.786Z,6.03
2022-08-17T08:56:31.626Z,5.28
2022-08-17T09:02:07.691Z,4.38
2022-08-17T09:07:29.336Z,5.45
2022-08-17T09:12:47.587Z,4.53
2022-08-17T09:19:01.562Z,5.60
2022-08-17T09:23:39.024Z,4.63
2022-08-17T09:28:46.556Z,5.13
2022-08-17T09:33:48.975Z,4.70
2022-08-17T09:39:00.747Z,5.75
2022-08-17T09:44:31.053Z,5.78
2022-08-17T09:49:46.638Z,5.35
2022-08-17T09:54:50.849Z,5.03
2022-08-17T10:00:13.173Z,5.30
2022-08-17T10:05:28.990Z,5.15
2022-08-17T10:11:05.553Z,4.72
2022-08-17T10:16:25.969Z,4.38
2022-08-17T10:21:49.391Z,5.00
2022-08-17T10:27:10.619Z,5.28
2022-08-17T10:32:27.508Z,5.88
2022-08-17T10:38:01.443Z,4.70
2022-08-17T10:43:32.819Z,4.70
2022-08-17T10:48:38.180Z,4.63
2022-08-17T10:53:50.459Z,4.47
2022-08-17T10:58:58.650Z,4.18
2022-08-17T11:04:38.825Z,4.65
2022-08-17T11:10:03.637Z,5.15
2022-08-17T11:15:27.639Z,5.25
2022-08-17T11:20:56.921Z,4.85
2022-08-17T11:26:04.016Z,5.43
2022-08-17T11:31:37.849Z,5.40
2022-08-17T11:36:56.027Z,5.68
2022-08-17T11:42:12.316Z,5.03
2022-08-17T11:48:26.638Z,4.88
2022-08-17T11:53:46.047Z,4.22
2022-08-17T11:58:50.163Z,4.75
2022-08-17T12:04:28.782Z,4.15
2022-08-17T12:09:32.746Z,4.07
2022-08-17T12:15:08.380Z,3.55
2022-08-17T12:20:14.629Z,3.42
2022-08-17T12:25:45.170Z,3.72
2022-08-17T12:30:50.318Z,2.90
2022-08-17T12:36:05.447Z,3.03
2022-08-17T12:41:28.199Z,3.10
2022-08-17T12:46:44.652Z,2.95
2022-08-17T12:51:47.659Z,3.58
2022-08-17T12:56:49.030Z,3.15
2022-08-17T13:01:50.798Z,3.13
2022-08-17T13:06:52.226Z,2.72
2022-08-17T13:12:01.623Z,2.75
2022-08-17T13:17:09.631Z,3.42
2022-08-17T13:22:14.197Z,3.03
2022-08-17T13:27:20.067Z,2.85
2022-08-17T13:32:33.471Z,2.88
2022-08-17T13:37:36.354Z,3.17
2022-08-17T13:42:52.707Z,3.08
2022-08-17T13:48:16.726Z,3.30
2022-08-17T13:53:25.444Z,3.20
2022-08-17T13:58:31.579Z,2.85
2022-08-17T14:03:32.905Z,2.88
2022-08-17T14:08:36.739Z,2.40
2022-08-17T14:13:38.086Z,2.67
2022-08-17T14:18:56.125Z,2.40
2022-08-17T14:23:58.540Z,2.60
2022-08-17T14:29:00.036Z,2.80
2022-08-17T14:34:01.975Z,2.85
2022-08-17T14:39:03.577Z,2.65
2022-08-17T14:44:05.479Z,2.28
2022-08-17T14:54:09.915Z,2.72
2022-08-17T14:59:11.294Z,2.60
2022-08-17T15:04:18.234Z,3.10
2022-08-17T15:09:19.703Z,2.70
2022-08-17T15:14:21.344Z,2.47
2022-08-17T15:19:22.647Z,2.97
2022-08-17T15:24:23.991Z,3.20
2022-08-17T15:29:25.304Z,3.13
2022-08-17T15:34:27.673Z,2.78
2022-08-17T15:39:29.007Z,3.35
2022-08-17T15:44:34.810Z,3.17
2022-08-17T15:49:39.479Z,3.10
2022-08-17T15:54:40.794Z,3.00
2022-08-17T15:59:47.465Z,2.90
2022-08-17T16:04:57.169Z,3.22
2022-08-17T16:09:59.079Z,3.42
2022-08-17T16:15:01.545Z,3.30
2022-08-17T16:20:04.532Z,2.90
2022-08-17T16:25:19.367Z,3.47
2022-08-17T16:30:24.150Z,3.50
2022-08-17T16:35:26.991Z,3.13
2022-08-17T16:40:31.277Z,3.33
2022-08-17T16:45:40.205Z,3.15
2022-08-17T16:50:42.480Z,3.10
2022-08-17T16:56:05.038Z,3.13
2022-08-17T17:01:07.659Z,2.97
2022-08-17T17:06:18.579Z,3.08
2022-08-17T17:11:33.963Z,3.92
2022-08-17T17:16:45.664Z,3.28
2022-08-17T17:21:52.195Z,3.33
2022-08-17T17:27:07.069Z,3.08
2022-08-17T17:32:20.907Z,3.65
2022-08-17T17:37:27.299Z,3.40
2022-08-17T17:42:31.513Z,3.65
2022-08-17T17:47:33.192Z,3.72
2022-08-17T17:53:18.938Z,3.27
2022-08-17T17:58:58.857Z,3.80
2022-08-17T18:04:21.264Z,3.95
2022-08-17T18:09:33.877Z,4.05
2022-08-17T18:15:12.871Z,3.45
2022-08-17T18:20:21.754Z,3.80
2022-08-17T18:25:47.650Z,3.75
2022-08-17T18:31:14.061Z,3.63
2022-08-17T18:36:34.019Z,3.95
2022-08-17T18:41:42.256Z,4.35
2022-08-17T18:46:43.563Z,4.00
2022-08-17T18:51:46.170Z,4.38
2022-08-17T19:02:23.232Z,4.20
2022-08-17T19:07:45.690Z,4.60
2022-08-17T19:13:00.682Z,5.00
2022-08-17T19:18:15.523Z,4.70
2022-08-17T19:23:29.128Z,5.78
2022-08-17T19:28:43.595Z,5.22
2022-08-17T19:33:50.673Z,4.95
2022-08-17T19:39:19.655Z,5.45
2022-08-17T19:44:39.606Z,6.32
2022-08-17T19:49:52.557Z,7.05
2022-08-17T19:55:00.491Z,6.22
2022-08-17T20:00:13.741Z,5.68
2022-08-17T20:05:22.759Z,6.40
2022-08-17T20:10:55.241Z,5.20
2022-08-17T20:15:56.678Z,5.72
2022-08-17T20:21:05.462Z,5.97
2022-08-17T20:26:09.726Z,6.47
2022-08-17T20:31:45.361Z,6.13
2022-08-17T20:37:14.692Z,5.88
2022-08-17T20:42:22.250Z,5.20
2022-08-17T20:47:28.834Z,5.28
2022-08-17T20:52:50.822Z,5.82
2022-08-17T20:57:52.404Z,5.45
2022-08-17T21:03:22.630Z,4.90
2022-08-17T21:08:40.325Z,5.75
2022-08-17T21:13:59.103Z,4.55
2022-08-17T21:19:12.361Z,4.43
2022-08-17T21:24:22.320Z,5.13
2022-08-17T21:29:31.338Z,4.72
2022-08-17T21:34:39.591Z,4.97
2022-08-17T21:39:41.967Z,4.70
2022-08-17T21:44:50.380Z,4.78
2022-08-17T21:49:53.516Z,4.88
2022-08-17T21:54:58.258Z,5.10
2022-08-17T22:00:16.220Z,4.30
2022-08-17T22:05:32.174Z,5.40
2022-08-17T22:10:45.499Z,4.80
2022-08-17T22:16:28.088Z,4.85
2022-08-17T22:21:29.423Z,5.20
2022-08-17T22:27:01.464Z,4.28
2022-08-17T22:32:03.452Z,4.63
2022-08-17T22:37:28.717Z,4.78
2022-08-17T22:42:30.146Z,5.18
2022-08-17T22:47:40.834Z,5.05
2022-08-17T22:53:02.987Z,5.05
2022-08-17T22:58:30.434Z,5.00
2022-08-17T23:03:31.950Z,4.97
2022-08-17T23:08:36.539Z,5.03
2022-08-17T23:13:38.008Z,5.82
2022-08-17T23:18:39.423Z,5.75
2022-08-17T23:23:40.810Z,5.47
2022-08-17T23:28:43.691Z,5.43
2022-08-17T23:33:46.571Z,5.72
2022-08-17T23:38:48.228Z,5.78
2022-08-17T23:43:52.141Z,6.63
2022-08-17T23:48:54.107Z,5.53
2022-08-17T23:54:07.179Z,5.97
2022-08-17T23:59:09.385Z,5.93
